sensor_id;sensor_type;location;lat;lon;timestamp;temperature;humidity
70851;DHT22;58475;49.662;9.636;2023-12-20T00:00:55;6.09;93.95
70851;DHT22;58475;49.662;9.636;2023-12-20T00:03:21;5.98;94.07
70851;DHT22;58475;49.662;9.636;2023-12-20T00:05:47;6.02;94.11
70851;DHT22;58475;49.662;9.636;2023-12-20T00:08:12;6.14;93.91
70851;DHT22;58475;49.662;9.636;2023-12-20T00:10:38;6.09;93.66
70851;DHT22;58475;49.662;9.636;2023-12-20T00:13:03;6.20;93.78
70851;DHT22;58475;49.662;9.636;2023-12-20T00:15:29;6.20;93.43
70851;DHT22;58475;49.662;9.636;2023-12-20T00:17:54;6.20;93.22
70851;DHT22;58475;49.662;9.636;2023-12-20T00:20:20;6.16;93.29
70851;DHT22;58475;49.662;9.636;2023-12-20T00:22:45;6.07;93.56
70851;DHT22;58475;49.662;9.636;2023-12-20T00:25:11;6.23;93.67
70851;DHT22;58475;49.662;9.636;2023-12-20T00:27:36;6.29;93.59
70851;DHT22;58475;49.662;9.636;2023-12-20T00:30:02;6.29;93.17
70851;DHT22;58475;49.662;9.636;2023-12-20T00:32:28;6.19;93.50
70851;DHT22;58475;49.662;9.636;2023-12-20T00:34:53;6.22;93.73
70851;DHT22;58475;49.662;9.636;2023-12-20T00:37:18;6.26;93.47
70851;DHT22;58475;49.662;9.636;2023-12-20T00:39:44;6.22;93.45
70851;DHT22;58475;49.662;9.636;2023-12-20T00:42:09;6.24;92.75
70851;DHT22;58475;49.662;9.636;2023-12-20T00:44:35;6.20;93.08
70851;DHT22;58475;49.662;9.636;2023-12-20T00:47:00;6.14;93.28
70851;DHT22;58475;49.662;9.636;2023-12-20T00:49:26;6.23;93.40
70851;DHT22;58475;49.662;9.636;2023-12-20T00:51:52;6.20;93.43
70851;DHT22;58475;49.662;9.636;2023-12-20T00:54:18;6.09;93.42
70851;DHT22;58475;49.662;9.636;2023-12-20T00:56:43;6.27;93.02
70851;DHT22;58475;49.662;9.636;2023-12-20T00:59:09;6.17;93.07
70851;DHT22;58475;49.662;9.636;2023-12-20T01:01:35;6.24;92.49
70851;DHT22;58475;49.662;9.636;2023-12-20T01:04:00;6.16;92.52
70851;DHT22;58475;49.662;9.636;2023-12-20T01:06:25;6.12;92.95
70851;DHT22;58475;49.662;9.636;2023-12-20T01:08:51;6.06;93.25
70851;DHT22;58475;49.662;9.636;2023-12-20T01:11:16;6.37;91.89
70851;DHT22;58475;49.662;9.636;2023-12-20T01:13:42;6.16;92.12
70851;DHT22;58475;49.662;9.636;2023-12-20T01:16:10;6.38;91.09
70851;DHT22;58475;49.662;9.636;2023-12-20T01:18:36;6.29;91.01
70851;DHT22;58475;49.662;9.636;2023-12-20T01:21:05;6.17;91.18
70851;DHT22;58475;49.662;9.636;2023-12-20T01:23:32;6.19;91.20
70851;DHT22;58475;49.662;9.636;2023-12-20T01:25:58;6.13;91.28
70851;DHT22;58475;49.662;9.636;2023-12-20T01:28:25;6.10;91.63
70851;DHT22;58475;49.662;9.636;2023-12-20T01:30:51;6.02;91.94
70851;DHT22;58475;49.662;9.636;2023-12-20T01:33:16;6.06;91.80
70851;DHT22;58475;49.662;9.636;2023-12-20T01:35:42;6.03;91.53
70851;DHT22;58475;49.662;9.636;2023-12-20T01:38:08;6.02;92.00
70851;DHT22;58475;49.662;9.636;2023-12-20T01:40:34;5.93;92.49
70851;DHT22;58475;49.662;9.636;2023-12-20T01:43:00;6.01;92.42
70851;DHT22;58475;49.662;9.636;2023-12-20T01:45:26;6.22;91.06
70851;DHT22;58475;49.662;9.636;2023-12-20T01:47:52;6.02;91.40
70851;DHT22;58475;49.662;9.636;2023-12-20T01:50:17;5.93;91.45
70851;DHT22;58475;49.662;9.636;2023-12-20T01:52:43;5.89;92.29
70851;DHT22;58475;49.662;9.636;2023-12-20T01:55:09;5.96;92.55
70851;DHT22;58475;49.662;9.636;2023-12-20T01:57:42;5.85;92.51
70851;DHT22;58475;49.662;9.636;2023-12-20T02:00:09;5.76;92.46
70851;DHT22;58475;49.662;9.636;2023-12-20T02:02:36;5.91;92.15
70851;DHT22;58475;49.662;9.636;2023-12-20T02:05:05;5.92;92.09
70851;DHT22;58475;49.662;9.636;2023-12-20T02:07:31;5.95;92.58
70851;DHT22;58475;49.662;9.636;2023-12-20T02:09:56;5.88;92.81
70851;DHT22;58475;49.662;9.636;2023-12-20T02:12:22;5.92;92.47
70851;DHT22;58475;49.662;9.636;2023-12-20T02:14:48;5.86;92.40
70851;DHT22;58475;49.662;9.636;2023-12-20T02:17:15;5.88;92.44
70851;DHT22;58475;49.662;9.636;2023-12-20T02:19:40;5.93;92.66
70851;DHT22;58475;49.662;9.636;2023-12-20T02:22:10;5.81;92.82
70851;DHT22;58475;49.662;9.636;2023-12-20T02:24:35;5.88;92.89
70851;DHT22;58475;49.662;9.636;2023-12-20T02:27:01;5.82;92.94
70851;DHT22;58475;49.662;9.636;2023-12-20T02:29:26;5.89;92.69
70851;DHT22;58475;49.662;9.636;2023-12-20T02:31:52;5.79;92.28
70851;DHT22;58475;49.662;9.636;2023-12-20T02:34:18;5.89;91.91
70851;DHT22;58475;49.662;9.636;2023-12-20T02:36:43;5.88;91.86
70851;DHT22;58475;49.662;9.636;2023-12-20T02:39:08;5.82;92.43
70851;DHT22;58475;49.662;9.636;2023-12-20T02:41:34;5.69;92.81
70851;DHT22;58475;49.662;9.636;2023-12-20T02:44:01;5.93;92.18
70851;DHT22;58475;49.662;9.636;2023-12-20T02:46:26;5.91;90.91
70851;DHT22;58475;49.662;9.636;2023-12-20T02:48:52;5.81;91.89
70851;DHT22;58475;49.662;9.636;2023-12-20T02:51:17;5.89;91.40
70851;DHT22;58475;49.662;9.636;2023-12-20T02:53:43;5.78;91.62
70851;DHT22;58475;49.662;9.636;2023-12-20T02:56:08;5.68;92.01
70851;DHT22;58475;49.662;9.636;2023-12-20T02:58:34;5.76;91.88
70851;DHT22;58475;49.662;9.636;2023-12-20T03:00:59;5.93;91.17
70851;DHT22;58475;49.662;9.636;2023-12-20T03:03:25;5.89;91.42
70851;DHT22;58475;49.662;9.636;2023-12-20T03:05:51;5.85;91.08
70851;DHT22;58475;49.662;9.636;2023-12-20T03:08:17;5.71;91.37
70851;DHT22;58475;49.662;9.636;2023-12-20T03:10:42;5.76;90.39
70851;DHT22;58475;49.662;9.636;2023-12-20T03:13:08;5.61;91.23
70851;DHT22;58475;49.662;9.636;2023-12-20T03:15:33;5.56;91.44
70851;DHT22;58475;49.662;9.636;2023-12-20T03:17:59;5.56;92.14
70851;DHT22;58475;49.662;9.636;2023-12-20T03:20:24;5.61;91.84
70851;DHT22;58475;49.662;9.636;2023-12-20T03:22:51;5.62;91.42
70851;DHT22;58475;49.662;9.636;2023-12-20T03:25:17;5.61;92.08
70851;DHT22;58475;49.662;9.636;2023-12-20T03:27:42;5.48;91.88
70851;DHT22;58475;49.662;9.636;2023-12-20T03:30:08;5.47;91.35
70851;DHT22;58475;49.662;9.636;2023-12-20T03:32:34;5.58;91.65
70851;DHT22;58475;49.662;9.636;2023-12-20T03:34:59;5.48;91.58
70851;DHT22;58475;49.662;9.636;2023-12-20T03:37:25;5.44;92.32
70851;DHT22;58475;49.662;9.636;2023-12-20T03:39:50;5.43;92.34
70851;DHT22;58475;49.662;9.636;2023-12-20T03:42:16;5.41;92.43
70851;DHT22;58475;49.662;9.636;2023-12-20T03:44:41;5.65;91.56
70851;DHT22;58475;49.662;9.636;2023-12-20T03:47:07;5.59;91.51
70851;DHT22;58475;49.662;9.636;2023-12-20T03:49:33;5.52;91.87
70851;DHT22;58475;49.662;9.636;2023-12-20T03:51:58;5.47;92.22
70851;DHT22;58475;49.662;9.636;2023-12-20T03:54:24;5.48;91.88
70851;DHT22;58475;49.662;9.636;2023-12-20T03:56:50;5.45;92.14
70851;DHT22;58475;49.662;9.636;2023-12-20T03:59:15;5.43;92.24
70851;DHT22;58475;49.662;9.636;2023-12-20T04:01:44;5.41;92.66
70851;DHT22;58475;49.662;9.636;2023-12-20T04:04:10;5.41;92.50
70851;DHT22;58475;49.662;9.636;2023-12-20T04:06:36;5.43;92.51
70851;DHT22;58475;49.662;9.636;2023-12-20T04:09:02;5.50;92.36
70851;DHT22;58475;49.662;9.636;2023-12-20T04:11:27;5.51;92.45
70851;DHT22;58475;49.662;9.636;2023-12-20T04:13:52;5.44;92.19
70851;DHT22;58475;49.662;9.636;2023-12-20T04:16:18;5.38;92.61
70851;DHT22;58475;49.662;9.636;2023-12-20T04:18:43;5.44;92.77
70851;DHT22;58475;49.662;9.636;2023-12-20T04:21:09;5.48;92.52
70851;DHT22;58475;49.662;9.636;2023-12-20T04:23:34;5.65;91.41
70851;DHT22;58475;49.662;9.636;2023-12-20T04:26:00;5.50;91.94
70851;DHT22;58475;49.662;9.636;2023-12-20T04:28:25;5.62;91.85
70851;DHT22;58475;49.662;9.636;2023-12-20T04:30:50;5.47;92.24
70851;DHT22;58475;49.662;9.636;2023-12-20T04:33:16;5.41;92.68
70851;DHT22;58475;49.662;9.636;2023-12-20T04:35:41;5.50;92.50
70851;DHT22;58475;49.662;9.636;2023-12-20T04:38:08;5.40;92.79
70851;DHT22;58475;49.662;9.636;2023-12-20T04:40:34;5.34;92.69
70851;DHT22;58475;49.662;9.636;2023-12-20T04:42:59;5.35;92.74
70851;DHT22;58475;49.662;9.636;2023-12-20T04:45:25;5.37;92.97
70851;DHT22;58475;49.662;9.636;2023-12-20T04:47:51;5.52;92.47
70851;DHT22;58475;49.662;9.636;2023-12-20T04:50:16;5.56;92.59
70851;DHT22;58475;49.662;9.636;2023-12-20T04:52:42;5.62;92.41
70851;DHT22;58475;49.662;9.636;2023-12-20T04:55:08;5.59;92.70
70851;DHT22;58475;49.662;9.636;2023-12-20T04:57:35;5.51;92.87
70851;DHT22;58475;49.662;9.636;2023-12-20T05:00:00;5.54;93.12
70851;DHT22;58475;49.662;9.636;2023-12-20T05:02:25;5.43;93.83
70851;DHT22;58475;49.662;9.636;2023-12-20T05:04:51;5.54;93.65
70851;DHT22;58475;49.662;9.636;2023-12-20T05:07:16;5.66;93.19
70851;DHT22;58475;49.662;9.636;2023-12-20T05:09:42;5.58;93.57
70851;DHT22;58475;49.662;9.636;2023-12-20T05:12:08;5.50;94.17
70851;DHT22;58475;49.662;9.636;2023-12-20T05:14:33;5.58;94.11
70851;DHT22;58475;49.662;9.636;2023-12-20T05:16:59;5.66;93.86
70851;DHT22;58475;49.662;9.636;2023-12-20T05:19:24;5.66;94.03
70851;DHT22;58475;49.662;9.636;2023-12-20T05:21:50;5.64;94.01
70851;DHT22;58475;49.662;9.636;2023-12-20T05:24:15;5.55;94.67
70851;DHT22;58475;49.662;9.636;2023-12-20T05:26:41;5.78;94.22
70851;DHT22;58475;49.662;9.636;2023-12-20T05:29:06;5.93;93.58
70851;DHT22;58475;49.662;9.636;2023-12-20T05:31:32;5.82;93.04
70851;DHT22;58475;49.662;9.636;2023-12-20T05:33:57;5.86;93.72
70851;DHT22;58475;49.662;9.636;2023-12-20T05:36:23;5.92;93.38
70851;DHT22;58475;49.662;9.636;2023-12-20T05:38:49;5.96;93.10
70851;DHT22;58475;49.662;9.636;2023-12-20T05:41:14;5.74;93.80
70851;DHT22;58475;49.662;9.636;2023-12-20T05:43:40;5.93;93.68
70851;DHT22;58475;49.662;9.636;2023-12-20T05:46:05;5.91;94.09
70851;DHT22;58475;49.662;9.636;2023-12-20T05:48:30;5.95;93.99
70851;DHT22;58475;49.662;9.636;2023-12-20T05:50:56;5.98;93.73
70851;DHT22;58475;49.662;9.636;2023-12-20T05:53:22;6.05;93.11
70851;DHT22;58475;49.662;9.636;2023-12-20T05:55:48;6.01;93.58
70851;DHT22;58475;49.662;9.636;2023-12-20T05:58:13;5.98;93.47
70851;DHT22;58475;49.662;9.636;2023-12-20T06:00:39;5.99;93.78
70851;DHT22;58475;49.662;9.636;2023-12-20T06:03:04;6.14;93.37
70851;DHT22;58475;49.662;9.636;2023-12-20T06:05:30;6.23;93.03
70851;DHT22;58475;49.662;9.636;2023-12-20T06:07:56;6.20;93.29
70851;DHT22;58475;49.662;9.636;2023-12-20T06:10:27;6.07;93.83
70851;DHT22;58475;49.662;9.636;2023-12-20T06:12:52;6.27;92.99
70851;DHT22;58475;49.662;9.636;2023-12-20T06:15:18;6.26;93.31
70851;DHT22;58475;49.662;9.636;2023-12-20T06:17:43;6.29;93.13
70851;DHT22;58475;49.662;9.636;2023-12-20T06:20:09;6.22;93.06
70851;DHT22;58475;49.662;9.636;2023-12-20T06:22:35;6.29;92.78
70851;DHT22;58475;49.662;9.636;2023-12-20T06:25:02;6.33;92.67
70851;DHT22;58475;49.662;9.636;2023-12-20T06:27:28;6.43;92.07
70851;DHT22;58475;49.662;9.636;2023-12-20T06:29:54;6.36;92.46
70851;DHT22;58475;49.662;9.636;2023-12-20T06:32:19;6.20;92.44
70851;DHT22;58475;49.662;9.636;2023-12-20T06:34:45;6.24;91.93
70851;DHT22;58475;49.662;9.636;2023-12-20T06:37:10;6.23;91.85
70851;DHT22;58475;49.662;9.636;2023-12-20T06:39:36;6.20;91.20
70851;DHT22;58475;49.662;9.636;2023-12-20T06:42:01;6.03;91.51
70851;DHT22;58475;49.662;9.636;2023-12-20T06:44:27;6.02;91.20
70851;DHT22;58475;49.662;9.636;2023-12-20T06:46:52;6.05;91.61
70851;DHT22;58475;49.662;9.636;2023-12-20T06:49:18;6.06;91.46
70851;DHT22;58475;49.662;9.636;2023-12-20T06:51:44;6.19;91.03
70851;DHT22;58475;49.662;9.636;2023-12-20T06:54:09;6.17;90.67
70851;DHT22;58475;49.662;9.636;2023-12-20T06:56:35;6.12;90.68
70851;DHT22;58475;49.662;9.636;2023-12-20T06:59:00;6.13;90.75
70851;DHT22;58475;49.662;9.636;2023-12-20T07:01:28;6.22;89.76
70851;DHT22;58475;49.662;9.636;2023-12-20T07:03:54;6.06;89.52
70851;DHT22;58475;49.662;9.636;2023-12-20T07:06:19;6.13;89.46
70851;DHT22;58475;49.662;9.636;2023-12-20T07:08:46;6.12;89.03
70851;DHT22;58475;49.662;9.636;2023-12-20T07:11:11;6.06;88.91
70851;DHT22;58475;49.662;9.636;2023-12-20T07:13:37;5.96;89.61
70851;DHT22;58475;49.662;9.636;2023-12-20T07:16:03;6.07;88.45
70851;DHT22;58475;49.662;9.636;2023-12-20T07:18:28;6.01;88.42
70851;DHT22;58475;49.662;9.636;2023-12-20T07:20:54;5.95;88.60
70851;DHT22;58475;49.662;9.636;2023-12-20T07:23:20;5.89;88.17
70851;DHT22;58475;49.662;9.636;2023-12-20T07:25:46;5.75;88.44
70851;DHT22;58475;49.662;9.636;2023-12-20T07:28:12;5.54;88.86
70851;DHT22;58475;49.662;9.636;2023-12-20T07:30:38;5.43;89.36
70851;DHT22;58475;49.662;9.636;2023-12-20T07:33:04;5.31;89.48
70851;DHT22;58475;49.662;9.636;2023-12-20T07:35:30;5.43;88.91
70851;DHT22;58475;49.662;9.636;2023-12-20T07:37:55;5.58;87.91
70851;DHT22;58475;49.662;9.636;2023-12-20T07:40:21;5.59;87.99
70851;DHT22;58475;49.662;9.636;2023-12-20T07:42:46;5.44;88.81
70851;DHT22;58475;49.662;9.636;2023-12-20T07:45:12;5.43;88.54
70851;DHT22;58475;49.662;9.636;2023-12-20T07:47:37;5.35;88.58
70851;DHT22;58475;49.662;9.636;2023-12-20T07:50:03;5.20;89.08
70851;DHT22;58475;49.662;9.636;2023-12-20T07:52:29;5.06;89.44
70851;DHT22;58475;49.662;9.636;2023-12-20T07:54:55;5.17;88.80
70851;DHT22;58475;49.662;9.636;2023-12-20T07:57:21;5.23;88.71
70851;DHT22;58475;49.662;9.636;2023-12-20T07:59:46;5.30;88.38
70851;DHT22;58475;49.662;9.636;2023-12-20T08:02:12;5.38;88.27
70851;DHT22;58475;49.662;9.636;2023-12-20T08:04:37;5.31;88.16
70851;DHT22;58475;49.662;9.636;2023-12-20T08:07:03;5.23;88.79
70851;DHT22;58475;49.662;9.636;2023-12-20T08:09:29;5.38;87.77
70851;DHT22;58475;49.662;9.636;2023-12-20T08:11:55;5.45;87.60
70851;DHT22;58475;49.662;9.636;2023-12-20T08:14:20;5.55;87.29
70851;DHT22;58475;49.662;9.636;2023-12-20T08:16:46;5.58;86.98
70851;DHT22;58475;49.662;9.636;2023-12-20T08:19:12;5.51;87.77
70851;DHT22;58475;49.662;9.636;2023-12-20T08:21:39;5.55;87.88
70851;DHT22;58475;49.662;9.636;2023-12-20T08:24:04;5.71;86.19
70851;DHT22;58475;49.662;9.636;2023-12-20T08:26:30;5.55;87.49
70851;DHT22;58475;49.662;9.636;2023-12-20T08:28:56;5.65;86.94
70851;DHT22;58475;49.662;9.636;2023-12-20T08:31:21;5.66;86.81
70851;DHT22;58475;49.662;9.636;2023-12-20T08:33:48;5.76;86.75
70851;DHT22;58475;49.662;9.636;2023-12-20T08:36:14;5.78;86.58
70851;DHT22;58475;49.662;9.636;2023-12-20T08:38:39;5.86;86.27
70851;DHT22;58475;49.662;9.636;2023-12-20T08:41:06;6.19;85.49
70851;DHT22;58475;49.662;9.636;2023-12-20T08:43:32;6.43;84.53
70851;DHT22;58475;49.662;9.636;2023-12-20T08:45:57;6.84;83.76
70851;DHT22;58475;49.662;9.636;2023-12-20T08:48:23;7.06;82.93
70851;DHT22;58475;49.662;9.636;2023-12-20T08:50:48;7.26;84.35
70851;DHT22;58475;49.662;9.636;2023-12-20T08:53:15;7.44;82.23
70851;DHT22;58475;49.662;9.636;2023-12-20T08:55:42;7.30;82.57
70851;DHT22;58475;49.662;9.636;2023-12-20T08:58:08;7.11;82.97
70851;DHT22;58475;49.662;9.636;2023-12-20T09:00:34;7.26;83.17
70851;DHT22;58475;49.662;9.636;2023-12-20T09:03:01;7.40;82.56
70851;DHT22;58475;49.662;9.636;2023-12-20T09:05:26;6.99;82.96
70851;DHT22;58475;49.662;9.636;2023-12-20T09:07:52;6.87;83.23
70851;DHT22;58475;49.662;9.636;2023-12-20T09:10:17;7.16;83.38
70851;DHT22;58475;49.662;9.636;2023-12-20T09:12:49;7.49;81.99
70851;DHT22;58475;49.662;9.636;2023-12-20T09:15:14;7.73;82.06
70851;DHT22;58475;49.662;9.636;2023-12-20T09:17:40;7.95;80.86
70851;DHT22;58475;49.662;9.636;2023-12-20T09:20:07;7.97;81.06
70851;DHT22;58475;49.662;9.636;2023-12-20T09:22:34;7.74;80.86
70851;DHT22;58475;49.662;9.636;2023-12-20T09:24:59;7.42;82.41
70851;DHT22;58475;49.662;9.636;2023-12-20T09:27:25;7.19;81.70
70851;DHT22;58475;49.662;9.636;2023-12-20T09:29:51;7.15;82.43
70851;DHT22;58475;49.662;9.636;2023-12-20T09:32:16;7.11;82.90
70851;DHT22;58475;49.662;9.636;2023-12-20T09:34:42;7.16;82.68
70851;DHT22;58475;49.662;9.636;2023-12-20T09:37:08;6.99;82.82
70851;DHT22;58475;49.662;9.636;2023-12-20T09:39:33;7.13;82.65
70851;DHT22;58475;49.662;9.636;2023-12-20T09:42:02;7.03;82.96
70851;DHT22;58475;49.662;9.636;2023-12-20T09:44:28;7.15;83.85
70851;DHT22;58475;49.662;9.636;2023-12-20T09:46:55;6.95;82.79
70851;DHT22;58475;49.662;9.636;2023-12-20T09:49:20;7.08;82.74
70851;DHT22;58475;49.662;9.636;2023-12-20T09:51:47;7.12;82.72
70851;DHT22;58475;49.662;9.636;2023-12-20T09:54:17;7.02;82.24
70851;DHT22;58475;49.662;9.636;2023-12-20T09:56:43;6.98;82.59
70851;DHT22;58475;49.662;9.636;2023-12-20T09:59:08;7.13;82.96
70851;DHT22;58475;49.662;9.636;2023-12-20T10:01:34;7.15;82.78
70851;DHT22;58475;49.662;9.636;2023-12-20T10:04:00;7.26;82.91
70851;DHT22;58475;49.662;9.636;2023-12-20T10:06:28;7.22;81.82
70851;DHT22;58475;49.662;9.636;2023-12-20T10:08:54;7.20;82.24
70851;DHT22;58475;49.662;9.636;2023-12-20T10:11:19;7.19;82.52
70851;DHT22;58475;49.662;9.636;2023-12-20T10:13:47;7.19;83.09
70851;DHT22;58475;49.662;9.636;2023-12-20T10:16:13;7.23;82.78
70851;DHT22;58475;49.662;9.636;2023-12-20T10:18:39;7.22;83.31
70851;DHT22;58475;49.662;9.636;2023-12-20T10:21:04;7.39;81.61
70851;DHT22;58475;49.662;9.636;2023-12-20T10:23:31;7.32;82.40
70851;DHT22;58475;49.662;9.636;2023-12-20T10:25:58;7.32;82.46
70851;DHT22;58475;49.662;9.636;2023-12-20T10:28:24;7.66;82.19
70851;DHT22;58475;49.662;9.636;2023-12-20T10:30:54;7.54;81.21
70851;DHT22;58475;49.662;9.636;2023-12-20T10:33:31;7.64;82.66
70851;DHT22;58475;49.662;9.636;2023-12-20T10:36:00;8.05;80.10
70851;DHT22;58475;49.662;9.636;2023-12-20T10:38:25;7.85;81.32
70851;DHT22;58475;49.662;9.636;2023-12-20T10:40:57;7.78;80.93
70851;DHT22;58475;49.662;9.636;2023-12-20T10:43:26;7.71;81.15
70851;DHT22;58475;49.662;9.636;2023-12-20T10:45:53;7.90;81.19
70851;DHT22;58475;49.662;9.636;2023-12-20T10:48:19;7.91;80.68
70851;DHT22;58475;49.662;9.636;2023-12-20T10:50:47;8.06;81.26
70851;DHT22;58475;49.662;9.636;2023-12-20T10:53:13;8.16;79.50
70851;DHT22;58475;49.662;9.636;2023-12-20T10:55:38;8.01;80.95
70851;DHT22;58475;49.662;9.636;2023-12-20T10:58:08;7.97;79.75
70851;DHT22;58475;49.662;9.636;2023-12-20T11:00:39;7.93;80.82
70851;DHT22;58475;49.662;9.636;2023-12-20T11:03:09;7.90;80.12
70851;DHT22;58475;49.662;9.636;2023-12-20T11:05:47;7.64;79.51
70851;DHT22;58475;49.662;9.636;2023-12-20T11:08:38;7.69;81.43
70851;DHT22;58475;49.662;9.636;2023-12-20T11:11:26;7.73;80.59
70851;DHT22;58475;49.662;9.636;2023-12-20T11:14:00;7.69;81.33
70851;DHT22;58475;49.662;9.636;2023-12-20T11:16:27;7.70;80.87
70851;DHT22;58475;49.662;9.636;2023-12-20T11:18:52;7.98;80.64
70851;DHT22;58475;49.662;9.636;2023-12-20T11:21:18;7.70;79.95
70851;DHT22;58475;49.662;9.636;2023-12-20T11:23:43;7.70;81.66
70851;DHT22;58475;49.662;9.636;2023-12-20T11:26:09;7.88;81.06
70851;DHT22;58475;49.662;9.636;2023-12-20T11:28:34;8.21;78.90
70851;DHT22;58475;49.662;9.636;2023-12-20T11:31:01;8.49;79.59
70851;DHT22;58475;49.662;9.636;2023-12-20T11:33:36;8.50;77.41
70851;DHT22;58475;49.662;9.636;2023-12-20T11:36:02;8.21;77.94
70851;DHT22;58475;49.662;9.636;2023-12-20T11:38:38;8.02;77.68
70851;DHT22;58475;49.662;9.636;2023-12-20T11:41:07;8.36;78.43
70851;DHT22;58475;49.662;9.636;2023-12-20T11:43:36;8.74;78.74
70851;DHT22;58475;49.662;9.636;2023-12-20T11:46:05;8.53;77.17
70851;DHT22;58475;49.662;9.636;2023-12-20T11:48:32;8.41;78.39
70851;DHT22;58475;49.662;9.636;2023-12-20T11:50:58;8.50;78.00
70851;DHT22;58475;49.662;9.636;2023-12-20T11:53:24;8.49;78.51
70851;DHT22;58475;49.662;9.636;2023-12-20T11:55:50;9.13;77.39
70851;DHT22;58475;49.662;9.636;2023-12-20T11:58:16;9.01;76.10
70851;DHT22;58475;49.662;9.636;2023-12-20T12:00:42;8.72;76.88
70851;DHT22;58475;49.662;9.636;2023-12-20T12:03:14;8.50;77.84
70851;DHT22;58475;49.662;9.636;2023-12-20T12:05:40;8.21;77.81
70851;DHT22;58475;49.662;9.636;2023-12-20T12:08:05;8.25;77.71
70851;DHT22;58475;49.662;9.636;2023-12-20T12:10:31;8.64;77.09
70851;DHT22;58475;49.662;9.636;2023-12-20T12:12:56;8.50;76.88
70851;DHT22;58475;49.662;9.636;2023-12-20T12:15:22;8.45;76.06
70851;DHT22;58475;49.662;9.636;2023-12-20T12:17:54;8.38;75.31
70851;DHT22;58475;49.662;9.636;2023-12-20T12:20:21;8.12;76.22
70851;DHT22;58475;49.662;9.636;2023-12-20T12:22:57;8.11;77.57
70851;DHT22;58475;49.662;9.636;2023-12-20T12:25:23;7.84;77.11
70851;DHT22;58475;49.662;9.636;2023-12-20T12:27:51;7.66;77.71
70851;DHT22;58475;49.662;9.636;2023-12-20T12:30:16;7.64;77.93
70851;DHT22;58475;49.662;9.636;2023-12-20T12:32:44;7.36;78.23
70851;DHT22;58475;49.662;9.636;2023-12-20T12:35:10;7.47;78.42
70851;DHT22;58475;49.662;9.636;2023-12-20T12:37:37;7.59;78.28
70851;DHT22;58475;49.662;9.636;2023-12-20T12:40:09;7.63;78.90
70851;DHT22;58475;49.662;9.636;2023-12-20T12:42:36;7.60;78.63
70851;DHT22;58475;49.662;9.636;2023-12-20T12:45:02;7.63;78.32
70851;DHT22;58475;49.662;9.636;2023-12-20T12:47:28;7.85;77.98
70851;DHT22;58475;49.662;9.636;2023-12-20T12:49:53;7.83;76.76
70851;DHT22;58475;49.662;9.636;2023-12-20T12:52:19;7.81;76.97
70851;DHT22;58475;49.662;9.636;2023-12-20T12:54:46;7.63;78.02
70851;DHT22;58475;49.662;9.636;2023-12-20T12:57:13;7.59;77.78
70851;DHT22;58475;49.662;9.636;2023-12-20T12:59:39;7.57;78.55
70851;DHT22;58475;49.662;9.636;2023-12-20T13:02:04;7.77;78.46
70851;DHT22;58475;49.662;9.636;2023-12-20T13:04:29;7.81;77.46
70851;DHT22;58475;49.662;9.636;2023-12-20T13:06:55;7.64;77.41
70851;DHT22;58475;49.662;9.636;2023-12-20T13:09:22;7.66;77.63
70851;DHT22;58475;49.662;9.636;2023-12-20T13:11:48;7.77;77.05
70851;DHT22;58475;49.662;9.636;2023-12-20T13:14:13;7.75;78.04
70851;DHT22;58475;49.662;9.636;2023-12-20T13:16:41;7.66;78.03
70851;DHT22;58475;49.662;9.636;2023-12-20T13:19:07;7.59;77.49
70851;DHT22;58475;49.662;9.636;2023-12-20T13:21:32;7.57;78.64
70851;DHT22;58475;49.662;9.636;2023-12-20T13:23:58;7.62;78.27
70851;DHT22;58475;49.662;9.636;2023-12-20T13:26:23;7.57;78.41
70851;DHT22;58475;49.662;9.636;2023-12-20T13:28:49;7.50;78.76
70851;DHT22;58475;49.662;9.636;2023-12-20T13:31:14;7.42;78.47
70851;DHT22;58475;49.662;9.636;2023-12-20T13:33:40;7.52;78.63
70851;DHT22;58475;49.662;9.636;2023-12-20T13:36:06;7.39;79.15
70851;DHT22;58475;49.662;9.636;2023-12-20T13:38:31;7.40;79.15
70851;DHT22;58475;49.662;9.636;2023-12-20T13:40:57;7.15;80.24
70851;DHT22;58475;49.662;9.636;2023-12-20T13:43:24;7.13;80.83
70851;DHT22;58475;49.662;9.636;2023-12-20T13:45:50;7.01;81.75
70851;DHT22;58475;49.662;9.636;2023-12-20T13:48:15;6.85;81.80
70851;DHT22;58475;49.662;9.636;2023-12-20T13:50:41;6.75;82.69
70851;DHT22;58475;49.662;9.636;2023-12-20T13:53:07;6.67;83.15
70851;DHT22;58475;49.662;9.636;2023-12-20T13:55:32;6.77;82.51
70851;DHT22;58475;49.662;9.636;2023-12-20T13:57:58;6.57;82.43
70851;DHT22;58475;49.662;9.636;2023-12-20T14:00:23;6.75;81.86
70851;DHT22;58475;49.662;9.636;2023-12-20T14:02:49;6.68;82.11
70851;DHT22;58475;49.662;9.636;2023-12-20T14:05:15;6.89;81.78
70851;DHT22;58475;49.662;9.636;2023-12-20T14:07:43;6.82;82.35
70851;DHT22;58475;49.662;9.636;2023-12-20T14:10:13;7.02;80.76
70851;DHT22;58475;49.662;9.636;2023-12-20T14:12:41;7.05;80.83
70851;DHT22;58475;49.662;9.636;2023-12-20T14:15:07;7.01;80.36
70851;DHT22;58475;49.662;9.636;2023-12-20T14:17:39;7.02;80.65
70851;DHT22;58475;49.662;9.636;2023-12-20T14:20:06;6.99;80.60
70851;DHT22;58475;49.662;9.636;2023-12-20T14:22:32;6.85;81.46
70851;DHT22;58475;49.662;9.636;2023-12-20T14:24:57;6.81;81.27
70851;DHT22;58475;49.662;9.636;2023-12-20T14:27:23;6.80;81.55
70851;DHT22;58475;49.662;9.636;2023-12-20T14:29:50;6.82;81.75
70851;DHT22;58475;49.662;9.636;2023-12-20T14:32:15;6.65;81.76
70851;DHT22;58475;49.662;9.636;2023-12-20T14:34:41;6.74;82.09
70851;DHT22;58475;49.662;9.636;2023-12-20T14:37:07;6.82;81.65
70851;DHT22;58475;49.662;9.636;2023-12-20T14:39:32;6.71;82.30
70851;DHT22;58475;49.662;9.636;2023-12-20T14:41:58;6.55;82.73
70851;DHT22;58475;49.662;9.636;2023-12-20T14:44:23;6.54;82.89
70851;DHT22;58475;49.662;9.636;2023-12-20T14:46:50;6.48;82.86
70851;DHT22;58475;49.662;9.636;2023-12-20T14:49:16;6.71;82.63
70851;DHT22;58475;49.662;9.636;2023-12-20T14:51:45;6.67;82.44
70851;DHT22;58475;49.662;9.636;2023-12-20T14:54:13;6.50;82.87
70851;DHT22;58475;49.662;9.636;2023-12-20T14:56:40;6.70;82.22
70851;DHT22;58475;49.662;9.636;2023-12-20T14:59:05;6.44;82.61
70851;DHT22;58475;49.662;9.636;2023-12-20T15:01:30;6.53;82.50
70851;DHT22;58475;49.662;9.636;2023-12-20T15:03:56;6.41;82.94
70851;DHT22;58475;49.662;9.636;2023-12-20T15:06:22;6.45;82.82
70851;DHT22;58475;49.662;9.636;2023-12-20T15:08:47;6.48;82.51
70851;DHT22;58475;49.662;9.636;2023-12-20T15:11:13;6.38;82.52
70851;DHT22;58475;49.662;9.636;2023-12-20T15:13:39;6.30;82.66
70851;DHT22;58475;49.662;9.636;2023-12-20T15:16:05;6.30;83.09
70851;DHT22;58475;49.662;9.636;2023-12-20T15:18:30;6.34;82.52
70851;DHT22;58475;49.662;9.636;2023-12-20T15:20:57;6.22;83.06
70851;DHT22;58475;49.662;9.636;2023-12-20T15:23:23;6.37;82.73
70851;DHT22;58475;49.662;9.636;2023-12-20T15:25:51;6.19;83.17
70851;DHT22;58475;49.662;9.636;2023-12-20T15:28:17;6.26;83.00
70851;DHT22;58475;49.662;9.636;2023-12-20T15:30:42;6.22;82.92
70851;DHT22;58475;49.662;9.636;2023-12-20T15:33:08;6.19;83.50
70851;DHT22;58475;49.662;9.636;2023-12-20T15:35:34;6.22;83.43
70851;DHT22;58475;49.662;9.636;2023-12-20T15:37:59;6.03;83.97